Conditions Actuelle
Couvert



Pression
29.85 (inHG) - 1010.92 (mb)
Visibilité

9.0 (km) - 5.6 (miles)
   Température
21  °C
Température
20  °C
Point de Rosée
94  %
 Humidité
   Vitesse du Vent
11  km/h
6  kts
7  mph
3.1  m/s
   Direction du Vent
N
45°
E
90°
135°
S
180°
225°
O
270°
315°
 210°

Sud Sud
est
   Données D'Aéroport
LFBG
Cognac-Châteaubernard (BA 709) Air Base
Metar :LFBG 130530Z AUTO 21006KT 9000 OVC004 21/20 Q1011
13-08-2022 06:30
   Informations de métar brut
Le METAR brut est le format le plus courant au monde pour la transmission de données météorologiques d'observation. Il est hautement standardisé par l’Organisation de l’aviation civile internationale (OACI), ce qui lui permet d’être compris dans la plupart des pays du monde.
   API Information
Données fournies par
https://www.checkwx.com/weather/LFBG

Météo aéronautique fournissant des rapports météorologiques METAR, TAF, AIRMET, SIGMET et OUTLOOK
   © Info
CSS/SVG/PHP les scripts ont été développés pa weather34.com pour une utilisation dans le modèle weather34 © 2015-2022

Informations sur le guide fournies par Metar-Wikipedia